Time;durP1;ratioP1;P1;durP2;ratioP2;P2;SDS_P1;SDS_P2;PMS_P1;PMS_P2;Temp;Humidity;BMP_temperature;BMP_pressure;BME280_temperature;BME280_humidity;BME280_pressure;Samples;Min_cycle;Max_cycle;Signal;HPM_P1;HPM_P2
2024/01/02 00:02:10;;;;;;;;;;;;;;;;;;4988175;28;20329;-56
2024/01/02 00:04:36;;;;;;;;;;;;;;;;;;4987092;28;20417;-56
2024/01/02 00:07:02;;;;;;;;;;;;;;;;;;4967896;28;19925;-56
2024/01/02 00:09:28;;;;;;;;;;;;;;;;;;4984033;28;19913;-56
2024/01/02 00:11:54;;;;;;;;;;;;;;;;;;4991242;28;20361;-56
2024/01/02 00:14:20;;;;;;;;;;;;;;;;;;4977961;28;19925;-56
2024/01/02 00:16:46;;;;;;;;;;;;;;;;;;4986152;28;20262;-56
2024/01/02 00:19:11;;;;;;;;;;;;;;;;;;4986624;28;19928;-56
2024/01/02 00:21:37;;;;;;;;;;;;;;;;;;4990928;28;19913;-56
2024/01/02 00:24:03;;;;;;;;;;;;;;;;;;4988097;28;19913;-56
2024/01/02 00:26:29;;;;;;;;;;;;;;;;;;4979942;28;20300;-56
2024/01/02 00:28:55;;;;;;;;;;;;;;;;;;4978588;28;19924;-56
2024/01/02 00:31:21;;;;;;;;;;;;;;;;;;4978931;28;20641;-56
2024/01/02 00:33:47;;;;;;;;;;;;;;;;;;4981802;28;20240;-56
2024/01/02 00:36:12;;;;;;;;;;;;;;;;;;4982009;28;19917;-56
2024/01/02 00:38:38;;;;;;;;;;;;;;;;;;4984735;28;19941;-56
2024/01/02 00:41:04;;;;;;;;;;;;;;;;;;4980283;28;19944;-56
2024/01/02 00:43:30;;;;;;;;;;;;;;;;;;4981503;28;22165;-56
2024/01/02 00:45:56;;;;;;;;;;;;;;;;;;4980903;28;19991;-56
2024/01/02 00:48:22;;;;;;;;;;;;;;;;;;4978097;28;19920;-56
2024/01/02 00:50:48;;;;;;;;;;;;;;;;;;4979734;28;19917;-56
2024/01/02 00:53:14;;;;;;;;;;;;;;;;;;4985004;28;20301;-56
2024/01/02 00:55:39;;;;;;;;;;;;;;;;;;4983300;28;19913;-56
2024/01/02 00:58:05;;;;;;;;;;;;;;;;;;4982999;28;19914;-56
2024/01/02 01:00:31;;;;;;;;;;;;;;;;;;4977683;28;19917;-56
2024/01/02 01:02:57;;;;;;;;;;;;;;;;;;4987752;28;19913;-56
2024/01/02 01:05:23;;;;;;;;;;;;;;;;;;4981639;28;19924;-56
2024/01/02 01:07:49;;;;;;;;;;;;;;;;;;4980431;28;20407;-56
2024/01/02 01:10:16;;;;;;;;;;;;;;;;;;4987365;28;19945;-56
2024/01/02 01:12:42;;;;;;;;;;;;;;;;;;4987029;28;19909;-55
2024/01/02 01:15:07;;;;;;;;;;;;;;;;;;4984013;28;19920;-56
2024/01/02 01:17:33;;;;;;;;;;;;;;;;;;4981279;28;19980;-56
2024/01/02 01:19:59;;;;;;;;;;;;;;;;;;4978874;28;20365;-56
2024/01/02 01:22:25;;;;;;;;;;;;;;;;;;4986019;28;19921;-56
2024/01/02 01:24:51;;;;;;;;;;;;;;;;;;4978702;28;21931;-56
2024/01/02 01:27:17;;;;;;;;;;;;;;;;;;4979126;28;19937;-56
2024/01/02 01:29:43;;;;;;;;;;;;;;;;;;4983442;28;19952;-56
2024/01/02 01:32:10;;;;;;;;;;;;;;;;;;4977742;28;19917;-56
2024/01/02 01:34:36;;;;;;;;;;;;;;;;;;4981614;28;20198;-56
2024/01/02 01:37:02;;;;;;;;;;;;;;;;;;4983790;28;19924;-56
2024/01/02 01:39:28;;;;;;;;;;;;;;;;;;4978519;28;19917;-56
2024/01/02 01:41:53;;;;;;;;;;;;;;;;;;4987940;28;19906;-56
2024/01/02 01:44:19;;;;;;;;;;;;;;;;;;4976676;28;19976;-56
2024/01/02 01:46:45;;;;;;;;;;;;;;;;;;4982152;28;20028;-56
2024/01/02 01:49:11;;;;;;;;;;;;;;;;;;4977669;28;20426;-56
2024/01/02 01:51:37;;;;;;;;;;;;;;;;;;4986539;28;19920;-56
2024/01/02 01:54:03;;;;;;;;;;;;;;;;;;4981624;28;20003;-56
2024/01/02 01:56:29;;;;;;;;;;;;;;;;;;4979684;28;19913;-56
2024/01/02 01:58:55;;;;;;;;;;;;;;;;;;4982428;28;20448;-56
2024/01/02 02:01:20;;;;;;;;;;;;;;;;;;4986096;28;19972;-56
2024/01/02 02:03:46;;;;;;;;;;;;;;;;;;4980173;28;19910;-56
2024/01/02 02:06:12;;;;;;;;;;;;;;;;;;4991294;28;19917;-56
2024/01/02 02:08:38;;;;;;;;;;;;;;;;;;4984188;28;19917;-56
2024/01/02 02:11:04;;;;;;;;;;;;;;;;;;4977774;28;19924;-56
2024/01/02 02:13:30;;;;;;;;;;;;;;;;;;4980873;28;20304;-56
2024/01/02 02:15:56;;;;;;;;;;;;;;;;;;4980413;28;19913;-56
2024/01/02 02:18:22;;;;;;;;;;;;;;;;;;4984520;28;20375;-56
2024/01/02 02:20:49;;;;;;;;;;;;;;;;;;4983619;28;19918;-56
2024/01/02 02:23:16;;;;;;;;;;;;;;;;;;4979801;28;20100;-56
2024/01/02 02:25:42;;;;;;;;;;;;;;;;;;4979760;28;19914;-56
2024/01/02 02:28:08;;;;;;;;;;;;;;;;;;4980701;28;20333;-56
2024/01/02 02:30:34;;;;;;;;;;;;;;;;;;4983017;28;19917;-56
2024/01/02 02:33:00;;;;;;;;;;;;;;;;;;4986767;28;19910;-56
2024/01/02 02:35:25;;;;;;;;;;;;;;;;;;4985275;28;20017;-56
2024/01/02 02:37:51;;;;;;;;;;;;;;;;;;4983744;28;20165;-56
2024/01/02 02:40:17;;;;;;;;;;;;;;;;;;4979176;28;19920;-56
2024/01/02 02:42:43;;;;;;;;;;;;;;;;;;4986804;28;19914;-56
2024/01/02 02:45:10;;;;;;;;;;;;;;;;;;4981173;28;19968;-56
2024/01/02 02:47:37;;;;;;;;;;;;;;;;;;4982557;28;19939;-56
2024/01/02 02:50:04;;;;;;;;;;;;;;;;;;4978468;28;19929;-56
2024/01/02 02:52:30;;;;;;;;;;;;;;;;;;4984382;28;19948;-56
2024/01/02 02:54:55;;;;;;;;;;;;;;;;;;4976394;28;19929;-56
2024/01/02 02:57:21;;;;;;;;;;;;;;;;;;4977890;28;20008;-56
2024/01/02 02:59:47;;;;;;;;;;;;;;;;;;4983000;28;19921;-55
2024/01/02 03:02:13;;;;;;;;;;;;;;;;;;4978754;28;19917;-56
2024/01/02 03:04:39;;;;;;;;;;;;;;;;;;4985448;28;20446;-56
2024/01/02 03:07:05;;;;;;;;;;;;;;;;;;4983503;28;19913;-56
2024/01/02 03:09:32;;;;;;;;;;;;;;;;;;4983677;28;19914;-56
2024/01/02 03:11:58;;;;;;;;;;;;;;;;;;4979936;28;20262;-56
2024/01/02 03:14:24;;;;;;;;;;;;;;;;;;4979840;28;19968;-56
2024/01/02 03:16:50;;;;;;;;;;;;;;;;;;4981165;28;20358;-56
2024/01/02 03:19:15;;;;;;;;;;;;;;;;;;4982828;28;19920;-56
2024/01/02 03:21:41;;;;;;;;;;;;;;;;;;4980956;28;19916;-56
2024/01/02 03:24:07;;;;;;;;;;;;;;;;;;4985458;28;20005;-56
2024/01/02 03:26:33;;;;;;;;;;;;;;;;;;4983941;28;19998;-56
2024/01/02 03:28:59;;;;;;;;;;;;;;;;;;4977410;28;19925;-56
2024/01/02 03:31:25;;;;;;;;;;;;;;;;;;4988047;28;19924;-56
2024/01/02 03:33:51;;;;;;;;;;;;;;;;;;4989806;28;19913;-56
2024/01/02 03:36:17;;;;;;;;;;;;;;;;;;4985988;28;19944;-56
2024/01/02 03:38:43;;;;;;;;;;;;;;;;;;4985278;28;20399;-56
2024/01/02 03:41:09;;;;;;;;;;;;;;;;;;4982350;28;20048;-56
2024/01/02 03:43:35;;;;;;;;;;;;;;;;;;4981796;28;20403;-56
2024/01/02 03:46:01;;;;;;;;;;;;;;;;;;4981494;28;19926;-56
2024/01/02 03:48:27;;;;;;;;;;;;;;;;;;4985382;28;19912;-56
2024/01/02 03:50:53;;;;;;;;;;;;;;;;;;4985289;28;19918;-56
2024/01/02 03:53:19;;;;;;;;;;;;;;;;;;4990146;28;20441;-56
2024/01/02 03:55:44;;;;;;;;;;;;;;;;;;4982588;28;20238;-56
2024/01/02 03:58:10;;;;;;;;;;;;;;;;;;4989880;28;19914;-56
2024/01/02 04:00:36;;;;;;;;;;;;;;;;;;4981220;28;19913;-56
2024/01/02 04:03:02;;;;;;;;;;;;;;;;;;4988039;28;19905;-56
2024/01/02 04:05:28;;;;;;;;;;;;;;;;;;4979143;28;19929;-56
2024/01/02 04:07:54;;;;;;;;;;;;;;;;;;4985672;28;19918;-56
2024/01/02 04:10:20;;;;;;;;;;;;;;;;;;4985743;28;19990;-57
2024/01/02 04:12:46;;;;;;;;;;;;;;;;;;4978070;28;20041;-56
2024/01/02 04:15:12;;;;;;;;;;;;;;;;;;4982816;28;19919;-56
2024/01/02 04:17:37;;;;;;;;;;;;;;;;;;4985897;28;19945;-56
2024/01/02 04:20:03;;;;;;;;;;;;;;;;;;4993149;28;20446;-56
2024/01/02 04:22:29;;;;;;;;;;;;;;;;;;4985279;28;19956;-56
2024/01/02 04:24:55;;;;;;;;;;;;;;;;;;4980984;28;19925;-56
2024/01/02 04:27:21;;;;;;;;;;;;;;;;;;4980001;28;19910;-56
2024/01/02 04:29:47;;;;;;;;;;;;;;;;;;4984673;28;20098;-56
2024/01/02 04:32:13;;;;;;;;;;;;;;;;;;4988898;28;19922;-56
2024/01/02 04:34:39;;;;;;;;;;;;;;;;;;4987943;28;20469;-56
2024/01/02 04:37:04;;;;;;;;;;;;;;;;;;4985420;28;19924;-56
2024/01/02 04:39:30;;;;;;;;;;;;;;;;;;4981784;28;19910;-56
2024/01/02 04:41:56;;;;;;;;;;;;;;;;;;4982686;28;20412;-56
2024/01/02 04:44:22;;;;;;;;;;;;;;;;;;4983035;28;20369;-56
2024/01/02 04:46:48;;;;;;;;;;;;;;;;;;4981246;28;19914;-56
2024/01/02 04:49:14;;;;;;;;;;;;;;;;;;4987422;28;19972;-56
2024/01/02 04:51:40;;;;;;;;;;;;;;;;;;4984424;28;20483;-56
2024/01/02 04:54:07;;;;;;;;;;;;;;;;;;4987898;28;19917;-56
2024/01/02 04:56:33;;;;;;;;;;;;;;;;;;4981693;28;19968;-56
2024/01/02 04:58:59;;;;;;;;;;;;;;;;;;4975798;28;19922;-56
2024/01/02 05:01:25;;;;;;;;;;;;;;;;;;4981223;28;20011;-55
2024/01/02 05:03:51;;;;;;;;;;;;;;;;;;4982071;28;19914;-56
2024/01/02 05:06:16;;;;;;;;;;;;;;;;;;4982147;28;19917;-56
2024/01/02 05:08:42;;;;;;;;;;;;;;;;;;4979417;28;19921;-56
2024/01/02 05:11:08;;;;;;;;;;;;;;;;;;4983221;28;20568;-56
2024/01/02 05:13:34;;;;;;;;;;;;;;;;;;4986895;28;19929;-56
2024/01/02 05:16:00;;;;;;;;;;;;;;;;;;4977963;28;20368;-58
2024/01/02 05:18:26;;;;;;;;;;;;;;;;;;4982811;28;19936;-56
2024/01/02 05:20:52;;;;;;;;;;;;;;;;;;4990507;28;19918;-55
2024/01/02 05:23:18;;;;;;;;;;;;;;;;;;4978583;28;19914;-56
2024/01/02 05:25:44;;;;;;;;;;;;;;;;;;4981345;28;19918;-56
2024/01/02 05:28:10;;;;;;;;;;;;;;;;;;4974860;28;19925;-56
2024/01/02 05:30:36;;;;;;;;;;;;;;;;;;4986244;28;19924;-56
2024/01/02 05:33:02;;;;;;;;;;;;;;;;;;4980908;28;19917;-56
2024/01/02 05:35:28;;;;;;;;;;;;;;;;;;4989925;28;19968;-56
2024/01/02 05:37:54;;;;;;;;;;;;;;;;;;4987918;28;19943;-56
2024/01/02 05:40:19;;;;;;;;;;;;;;;;;;4984581;28;20213;-56
2024/01/02 05:42:45;;;;;;;;;;;;;;;;;;4985282;28;19941;-56
2024/01/02 05:45:11;;;;;;;;;;;;;;;;;;4974809;28;20396;-56
2024/01/02 05:47:37;;;;;;;;;;;;;;;;;;4982102;28;19913;-56
2024/01/02 05:50:03;;;;;;;;;;;;;;;;;;4983852;28;19983;-56
2024/01/02 05:52:29;;;;;;;;;;;;;;;;;;4985997;28;19924;-56
2024/01/02 05:54:55;;;;;;;;;;;;;;;;;;4984775;28;20339;-56
2024/01/02 05:57:20;;;;;;;;;;;;;;;;;;4981907;28;19924;-56
2024/01/02 05:59:46;;;;;;;;;;;;;;;;;;4982860;28;20325;-56
2024/01/02 06:02:12;;;;;;;;;;;;;;;;;;4982445;28;20646;-55
2024/01/02 06:04:38;;;;;;;;;;;;;;;;;;4983937;28;20186;-56
2024/01/02 06:07:04;;;;;;;;;;;;;;;;;;4984117;28;19919;-56
2024/01/02 06:09:30;;;;;;;;;;;;;;;;;;4985189;28;20410;-56
2024/01/02 06:11:56;;;;;;;;;;;;;;;;;;4985087;28;20050;-56
2024/01/02 06:14:22;;;;;;;;;;;;;;;;;;4982952;28;19913;-56
2024/01/02 06:16:48;;;;;;;;;;;;;;;;;;4977634;28;19967;-56
2024/01/02 06:19:17;;;;;;;;;;;;;;;;;;4977249;28;20269;-56
2024/01/02 06:21:43;;;;;;;;;;;;;;;;;;4979443;28;19917;-56
2024/01/02 06:24:09;;;;;;;;;;;;;;;;;;4982738;28;19929;-56
2024/01/02 06:26:35;;;;;;;;;;;;;;;;;;4971354;28;19972;-55
2024/01/02 06:29:01;;;;;;;;;;;;;;;;;;4977167;28;19918;-56
2024/01/02 06:31:27;;;;;;;;;;;;;;;;;;4979586;28;19929;-55
2024/01/02 06:33:53;;;;;;;;;;;;;;;;;;4978039;28;20120;-55
2024/01/02 06:36:18;;;;;;;;;;;;;;;;;;4955827;28;19910;-55
2024/01/02 06:38:44;;;;;;;;;;;;;;;;;;4968462;28;19949;-55
2024/01/02 06:41:10;;;;;;;;;;;;;;;;;;4971391;28;20263;-55
2024/01/02 06:43:36;;;;;;;;;;;;;;;;;;4972186;28;19918;-55
2024/01/02 06:46:02;;;;;;;;;;;;;;;;;;4975220;28;20298;-55
2024/01/02 06:48:28;;;;;;;;;;;;;;;;;;4980861;28;19910;-55
2024/01/02 06:50:54;;;;;;;;;;;;;;;;;;4966603;28;19922;-57
2024/01/02 06:53:20;;;;;;;;;;;;;;;;;;4972201;28;20407;-57
2024/01/02 06:55:46;;;;;;;;;;;;;;;;;;4967994;28;19918;-57
2024/01/02 06:58:12;;;;;;;;;;;;;;;;;;4964372;28;20625;-57
2024/01/02 07:00:38;;;;;;;;;;;;;;;;;;4974343;28;19917;-57
2024/01/02 07:03:03;;;;;;;;;;;;;;;;;;4975513;28;19910;-57
2024/01/02 07:05:29;;;;;;;;;;;;;;;;;;4968437;28;19945;-57
2024/01/02 07:07:55;;;;;;;;;;;;;;;;;;4960945;28;19937;-56
2024/01/02 07:10:24;;;;;;;;;;;;;;;;;;4968261;28;20468;-56
2024/01/02 07:12:50;;;;;;;;;;;;;;;;;;4979896;28;19922;-54
2024/01/02 07:15:16;;;;;;;;;;;;;;;;;;4984870;28;19968;-52
2024/01/02 07:17:42;;;;;;;;;;;;;;;;;;4985441;28;19922;-52
2024/01/02 07:20:08;;;;;;;;;;;;;;;;;;4988271;28;19927;-54
2024/01/02 07:22:34;;;;;;;;;;;;;;;;;;4986917;28;19967;-54
2024/01/02 07:25:00;;;;;;;;;;;;;;;;;;4980197;28;20349;-54
2024/01/02 07:27:26;;;;;;;;;;;;;;;;;;4973718;28;19976;-56
2024/01/02 07:29:51;;;;;;;;;;;;;;;;;;4966660;28;19932;-56
2024/01/02 07:32:18;;;;;;;;;;;;;;;;;;4975782;28;19914;-56
2024/01/02 07:34:43;;;;;;;;;;;;;;;;;;4982409;28;20846;-56
2024/01/02 07:37:11;;;;;;;;;;;;;;;;;;4974931;28;20182;-56
2024/01/02 07:39:36;;;;;;;;;;;;;;;;;;4982301;28;19956;-56
2024/01/02 07:42:02;;;;;;;;;;;;;;;;;;4981150;28;19964;-56
2024/01/02 07:44:28;;;;;;;;;;;;;;;;;;4978794;28;19921;-53
2024/01/02 07:46:54;;;;;;;;;;;;;;;;;;4981860;28;20003;-56
2024/01/02 07:49:20;;;;;;;;;;;;;;;;;;4981318;28;19959;-56
2024/01/02 07:51:46;;;;;;;;;;;;;;;;;;4984082;28;19924;-56
2024/01/02 07:54:12;;;;;;;;;;;;;;;;;;4981734;28;20392;-56
2024/01/02 07:56:37;;;;;;;;;;;;;;;;;;4987809;28;19961;-56
2024/01/02 07:59:03;;;;;;;;;;;;;;;;;;4986088;28;19909;-56
2024/01/02 08:01:29;;;;;;;;;;;;;;;;;;4981459;28;20356;-56
2024/01/02 08:03:55;;;;;;;;;;;;;;;;;;4985028;28;19914;-56
2024/01/02 08:06:21;;;;;;;;;;;;;;;;;;4985565;28;19917;-56
2024/01/02 08:08:47;;;;;;;;;;;;;;;;;;4964877;28;19921;-55
2024/01/02 08:11:13;;;;;;;;;;;;;;;;;;4960013;28;20075;-56
2024/01/02 08:13:38;;;;;;;;;;;;;;;;;;4963138;28;19914;-56
2024/01/02 08:16:04;;;;;;;;;;;;;;;;;;4968988;28;19918;-56
2024/01/02 08:18:30;;;;;;;;;;;;;;;;;;4963578;28;20325;-56
2024/01/02 08:20:56;;;;;;;;;;;;;;;;;;4955805;28;19920;-56
2024/01/02 08:23:22;;;;;;;;;;;;;;;;;;4957336;28;20451;-56
2024/01/02 08:25:49;;;;;;;;;;;;;;;;;;4952511;28;19921;-56
2024/01/02 08:28:15;;;;;;;;;;;;;;;;;;4963147;28;19921;-56
2024/01/02 08:30:41;;;;;;;;;;;;;;;;;;4965447;28;19936;-56
2024/01/02 08:33:06;;;;;;;;;;;;;;;;;;4964289;28;20381;-53
2024/01/02 08:35:33;;;;;;;;;;;;;;;;;;4958462;28;20024;-53
2024/01/02 08:37:59;;;;;;;;;;;;;;;;;;4962330;28;19922;-56
2024/01/02 08:40:25;;;;;;;;;;;;;;;;;;4968047;28;19914;-56
2024/01/02 08:42:51;;;;;;;;;;;;;;;;;;4968343;28;20231;-56
2024/01/02 08:45:17;;;;;;;;;;;;;;;;;;4959320;28;19918;-57
2024/01/02 08:47:43;;;;;;;;;;;;;;;;;;4974530;28;19960;-56
2024/01/02 08:50:09;;;;;;;;;;;;;;;;;;4969849;28;19921;-56
2024/01/02 08:52:38;;;;;;;;;;;;;;;;;;4965171;28;19975;-53
2024/01/02 08:55:03;;;;;;;;;;;;;;;;;;4974388;28;19937;-53
2024/01/02 08:57:29;;;;;;;;;;;;;;;;;;4967240;28;19913;-56
2024/01/02 08:59:55;;;;;;;;;;;;;;;;;;4972566;28;19918;-56
2024/01/02 09:02:21;;;;;;;;;;;;;;;;;;4967080;28;20008;-56
2024/01/02 09:04:47;;;;;;;;;;;;;;;;;;4970442;28;19925;-56
2024/01/02 09:07:13;;;;;;;;;;;;;;;;;;4970804;28;20023;-56
2024/01/02 09:09:39;;;;;;;;;;;;;;;;;;4963764;28;19967;-56
2024/01/02 09:12:05;;;;;;;;;;;;;;;;;;4968627;28;20206;-57
2024/01/02 09:14:31;;;;;;;;;;;;;;;;;;4954863;28;22149;-56
2024/01/02 09:16:57;;;;;;;;;;;;;;;;;;4950693;28;20438;-54
2024/01/02 09:19:22;;;;;;;;;;;;;;;;;;4972072;28;19940;-56
2024/01/02 09:21:48;;;;;;;;;;;;;;;;;;4974186;28;20357;-56
2024/01/02 09:24:14;;;;;;;;;;;;;;;;;;4961800;28;19909;-57
2024/01/02 09:26:40;;;;;;;;;;;;;;;;;;4970891;28;19917;-56
2024/01/02 09:29:06;;;;;;;;;;;;;;;;;;4973773;28;19968;-56
2024/01/02 09:31:32;;;;;;;;;;;;;;;;;;4974028;28;20031;-54
2024/01/02 09:33:58;;;;;;;;;;;;;;;;;;4964936;28;19921;-54
2024/01/02 09:36:24;;;;;;;;;;;;;;;;;;4969227;28;19910;-53
2024/01/02 09:38:49;;;;;;;;;;;;;;;;;;4973079;28;19921;-54
2024/01/02 09:41:16;;;;;;;;;;;;;;;;;;4975360;28;20498;-54
2024/01/02 09:43:42;;;;;;;;;;;;;;;;;;4973338;28;20309;-54
2024/01/02 09:46:08;;;;;;;;;;;;;;;;;;4978998;28;19922;-54
2024/01/02 09:48:34;;;;;;;;;;;;;;;;;;4971410;28;20044;-54
2024/01/02 09:51:00;;;;;;;;;;;;;;;;;;4969959;28;19914;-53
2024/01/02 09:53:25;;;;;;;;;;;;;;;;;;4974592;28;19914;-54
2024/01/02 09:55:52;;;;;;;;;;;;;;;;;;4969935;28;20124;-54
2024/01/02 09:58:18;;;;;;;;;;;;;;;;;;4973877;28;19941;-56
2024/01/02 10:00:46;;;;;;;;;;;;;;;;;;4970144;28;19910;-56
2024/01/02 10:03:12;;;;;;;;;;;;;;;;;;4962206;28;19924;-57
2024/01/02 10:05:38;;;;;;;;;;;;;;;;;;4951075;28;19925;-56
2024/01/02 10:08:04;;;;;;;;;;;;;;;;;;4949369;28;20939;-56
2024/01/02 10:10:30;;;;;;;;;;;;;;;;;;4960590;28;20372;-56
2024/01/02 10:12:55;;;;;;;;;;;;;;;;;;4963369;28;20008;-56
2024/01/02 10:15:21;;;;;;;;;;;;;;;;;;4971860;28;20154;-57
2024/01/02 10:17:47;;;;;;;;;;;;;;;;;;4966831;28;19928;-56
2024/01/02 10:20:13;;;;;;;;;;;;;;;;;;4969120;28;19922;-56
2024/01/02 10:22:39;;;;;;;;;;;;;;;;;;4970610;28;19922;-57
2024/01/02 10:25:05;;;;;;;;;;;;;;;;;;4968591;28;19922;-57
2024/01/02 10:27:31;;;;;;;;;;;;;;;;;;4964630;28;19914;-57
2024/01/02 10:29:57;;;;;;;;;;;;;;;;;;4957593;28;20356;-56
2024/01/02 10:32:23;;;;;;;;;;;;;;;;;;4964932;28;19918;-56
2024/01/02 10:34:49;;;;;;;;;;;;;;;;;;4964729;28;19921;-56
2024/01/02 10:37:15;;;;;;;;;;;;;;;;;;4967695;28;19922;-56
2024/01/02 10:39:41;;;;;;;;;;;;;;;;;;4972332;28;19921;-56
2024/01/02 10:42:07;;;;;;;;;;;;;;;;;;4959992;28;20420;-56
2024/01/02 10:44:32;;;;;;;;;;;;;;;;;;4971984;28;19976;-56
2024/01/02 10:46:59;;;;;;;;;;;;;;;;;;4972742;28;19973;-56
2024/01/02 10:49:25;;;;;;;;;;;;;;;;;;4967969;28;19925;-54
2024/01/02 10:51:51;;;;;;;;;;;;;;;;;;4968814;28;19920;-53
2024/01/02 10:54:17;;;;;;;;;;;;;;;;;;4970721;28;20032;-57
2024/01/02 10:56:43;;;;;;;;;;;;;;;;;;4970954;28;21642;-54
2024/01/02 10:59:09;;;;;;;;;;;;;;;;;;4969781;28;19924;-54
2024/01/02 11:01:35;;;;;;;;;;;;;;;;;;4956691;28;20448;-56
2024/01/02 11:04:01;;;;;;;;;;;;;;;;;;4969109;28;20337;-56
2024/01/02 11:06:26;;;;;;;;;;;;;;;;;;4973317;28;19914;-55
2024/01/02 11:08:52;;;;;;;;;;;;;;;;;;4965358;28;19923;-55
2024/01/02 11:11:18;;;;;;;;;;;;;;;;;;4965828;28;20459;-55
2024/01/02 11:13:46;;;;;;;;;;;;;;;;;;4973963;28;19914;-55
2024/01/02 11:16:12;;;;;;;;;;;;;;;;;;4969179;28;19922;-56
2024/01/02 11:18:38;;;;;;;;;;;;;;;;;;4969546;28;19918;-56
2024/01/02 11:21:04;;;;;;;;;;;;;;;;;;4978093;28;19917;-55
2024/01/02 11:23:29;;;;;;;;;;;;;;;;;;4968602;28;19952;-56
2024/01/02 11:25:55;;;;;;;;;;;;;;;;;;4975569;28;19929;-55
2024/01/02 11:28:21;;;;;;;;;;;;;;;;;;4977661;28;20136;-53
2024/01/02 11:30:47;;;;;;;;;;;;;;;;;;4977435;28;20005;-56
2024/01/02 11:33:13;;;;;;;;;;;;;;;;;;4980512;28;19925;-56
2024/01/02 11:35:39;;;;;;;;;;;;;;;;;;4971442;28;20036;-56
2024/01/02 11:38:05;;;;;;;;;;;;;;;;;;4975375;28;19914;-56
2024/01/02 11:40:32;;;;;;;;;;;;;;;;;;4975500;28;19922;-56
2024/01/02 11:42:58;;;;;;;;;;;;;;;;;;4971367;28;19944;-56
2024/01/02 11:45:25;;;;;;;;;;;;;;;;;;4969120;28;20039;-56
2024/01/02 11:47:51;;;;;;;;;;;;;;;;;;4972379;28;19928;-56
2024/01/02 11:50:17;;;;;;;;;;;;;;;;;;4972572;28;19922;-56
2024/01/02 11:52:43;;;;;;;;;;;;;;;;;;4970408;28;20331;-56
2024/01/02 11:55:10;;;;;;;;;;;;;;;;;;4967941;28;20376;-56
2024/01/02 11:57:36;;;;;;;;;;;;;;;;;;4966373;28;19917;-56
2024/01/02 12:00:01;;;;;;;;;;;;;;;;;;4977999;28;19920;-56
2024/01/02 12:02:27;;;;;;;;;;;;;;;;;;4975099;28;19961;-56
2024/01/02 12:04:53;;;;;;;;;;;;;;;;;;4977136;28;19926;-56
2024/01/02 12:07:19;;;;;;;;;;;;;;;;;;4971604;28;20044;-56
2024/01/02 12:09:46;;;;;;;;;;;;;;;;;;4970289;28;20016;-56
2024/01/02 12:12:12;;;;;;;;;;;;;;;;;;4968181;28;20004;-56
2024/01/02 12:14:38;;;;;;;;;;;;;;;;;;4962613;28;19920;-55
2024/01/02 12:17:04;;;;;;;;;;;;;;;;;;4975510;28;19917;-56
2024/01/02 12:19:29;;;;;;;;;;;;;;;;;;4971792;28;19932;-55
2024/01/02 12:21:55;;;;;;;;;;;;;;;;;;4965611;28;19913;-56
2024/01/02 12:24:21;;;;;;;;;;;;;;;;;;4965929;28;20270;-56
2024/01/02 12:26:48;;;;;;;;;;;;;;;;;;4974378;28;20373;-56
2024/01/02 12:29:14;;;;;;;;;;;;;;;;;;4970065;28;19926;-56
2024/01/02 12:31:40;;;;;;;;;;;;;;;;;;4962710;28;20459;-56
2024/01/02 12:34:06;;;;;;;;;;;;;;;;;;4957342;28;21317;-53
2024/01/02 12:36:32;;;;;;;;;;;;;;;;;;4974251;28;19909;-56
2024/01/02 12:39:00;;;;;;;;;;;;;;;;;;4965163;28;19940;-53
2024/01/02 12:41:29;;;;;;;;;;;;;;;;;;4973135;28;19913;-53
2024/01/02 12:43:55;;;;;;;;;;;;;;;;;;4966305;28;19922;-54
2024/01/02 12:46:21;;;;;;;;;;;;;;;;;;4973090;28;20021;-54
2024/01/02 12:48:47;;;;;;;;;;;;;;;;;;4971992;28;19981;-54
2024/01/02 12:51:13;;;;;;;;;;;;;;;;;;4974644;28;20393;-54
2024/01/02 12:53:39;;;;;;;;;;;;;;;;;;4972841;28;20043;-54
2024/01/02 12:56:05;;;;;;;;;;;;;;;;;;4969672;28;20162;-54
2024/01/02 12:58:32;;;;;;;;;;;;;;;;;;4976654;28;19922;-53
2024/01/02 13:00:58;;;;;;;;;;;;;;;;;;4960896;28;19918;-54
2024/01/02 13:03:24;;;;;;;;;;;;;;;;;;4975755;28;20285;-54
2024/01/02 13:05:50;;;;;;;;;;;;;;;;;;4975363;28;20296;-54
2024/01/02 13:08:16;;;;;;;;;;;;;;;;;;4978317;28;19924;-54
2024/01/02 13:10:43;;;;;;;;;;;;;;;;;;4970048;28;19924;-54
2024/01/02 13:13:09;;;;;;;;;;;;;;;;;;4976175;28;19975;-54
2024/01/02 13:15:35;;;;;;;;;;;;;;;;;;4968077;28;19917;-53
2024/01/02 13:18:01;;;;;;;;;;;;;;;;;;4966208;28;19910;-54
2024/01/02 13:20:27;;;;;;;;;;;;;;;;;;4975896;28;19928;-53
2024/01/02 13:22:53;;;;;;;;;;;;;;;;;;4968599;28;19917;-54
2024/01/02 13:25:21;;;;;;;;;;;;;;;;;;4976473;28;19920;-54
2024/01/02 13:27:48;;;;;;;;;;;;;;;;;;4979972;28;19914;-54
2024/01/02 13:30:14;;;;;;;;;;;;;;;;;;4975237;28;19918;-54
2024/01/02 13:32:40;;;;;;;;;;;;;;;;;;4972295;28;19936;-55
2024/01/02 13:35:06;;;;;;;;;;;;;;;;;;4972303;28;19980;-55
2024/01/02 13:37:33;;;;;;;;;;;;;;;;;;4979265;28;20360;-54
2024/01/02 13:39:59;;;;;;;;;;;;;;;;;;4972415;28;19918;-55
2024/01/02 13:42:25;;;;;;;;;;;;;;;;;;4977502;28;20115;-54
2024/01/02 13:44:51;;;;;;;;;;;;;;;;;;4961268;28;20374;-55
2024/01/02 13:47:18;;;;;;;;;;;;;;;;;;4972098;28;19964;-54
2024/01/02 13:49:44;;;;;;;;;;;;;;;;;;4965092;28;20436;-54
2024/01/02 13:52:11;;;;;;;;;;;;;;;;;;4969665;28;19929;-54
2024/01/02 13:54:37;;;;;;;;;;;;;;;;;;4963215;28;19924;-54
2024/01/02 13:57:03;;;;;;;;;;;;;;;;;;4968632;28;19945;-54
2024/01/02 13:59:29;;;;;;;;;;;;;;;;;;4982192;28;19918;-54
2024/01/02 14:01:55;;;;;;;;;;;;;;;;;;4965019;28;19918;-55
2024/01/02 14:04:21;;;;;;;;;;;;;;;;;;4968222;28;19921;-55
2024/01/02 14:06:47;;;;;;;;;;;;;;;;;;4974635;28;20186;-54
2024/01/02 14:09:13;;;;;;;;;;;;;;;;;;4979475;28;19984;-55
2024/01/02 14:11:39;;;;;;;;;;;;;;;;;;4970811;28;19922;-55
2024/01/02 14:14:06;;;;;;;;;;;;;;;;;;4973491;28;19914;-55
2024/01/02 14:16:31;;;;;;;;;;;;;;;;;;4974042;28;20416;-55
2024/01/02 14:18:57;;;;;;;;;;;;;;;;;;4963968;28;19918;-55
2024/01/02 14:21:23;;;;;;;;;;;;;;;;;;4971284;28;19909;-55
2024/01/02 14:23:49;;;;;;;;;;;;;;;;;;4966014;28;19917;-55
2024/01/02 14:26:15;;;;;;;;;;;;;;;;;;4958506;28;19918;-54
2024/01/02 14:28:41;;;;;;;;;;;;;;;;;;4968998;28;19929;-55
2024/01/02 14:31:07;;;;;;;;;;;;;;;;;;4946442;28;20465;-55
2024/01/02 14:33:33;;;;;;;;;;;;;;;;;;4974917;28;20305;-55
2024/01/02 14:35:58;;;;;;;;;;;;;;;;;;4977364;28;19966;-55
2024/01/02 14:38:24;;;;;;;;;;;;;;;;;;4974460;28;20345;-55
2024/01/02 14:40:50;;;;;;;;;;;;;;;;;;4977048;28;20000;-55
2024/01/02 14:43:16;;;;;;;;;;;;;;;;;;4977939;28;20393;-55
2024/01/02 14:45:42;;;;;;;;;;;;;;;;;;4975994;28;19912;-55
2024/01/02 14:48:08;;;;;;;;;;;;;;;;;;4989209;28;19910;-55
2024/01/02 14:50:34;;;;;;;;;;;;;;;;;;4991783;28;20397;-55
2024/01/02 14:53:00;;;;;;;;;;;;;;;;;;4989844;28;20011;-55
2024/01/02 14:55:26;;;;;;;;;;;;;;;;;;4988984;28;20052;-54
2024/01/02 14:57:52;;;;;;;;;;;;;;;;;;4987390;28;20047;-54
2024/01/02 15:00:18;;;;;;;;;;;;;;;;;;4984553;28;20036;-55
2024/01/02 15:02:44;;;;;;;;;;;;;;;;;;4985699;28;20501;-55
2024/01/02 15:07:55;;;;;;;;;;;;;;;;;;4984734;28;20489;-55
2024/01/02 15:10:21;;;;;;;;;;;;;;;;;;4989824;28;19921;-55
2024/01/02 15:12:47;;;;;;;;;;;;;;;;;;4995019;28;20961;-55
2024/01/02 15:15:13;;;;;;;;;;;;;;;;;;4979523;28;20210;-55
2024/01/02 15:17:39;;;;;;;;;;;;;;;;;;4989258;28;19922;-55
2024/01/02 15:20:08;;;;;;;;;;;;;;;;;;4993346;28;19909;-55
2024/01/02 15:22:36;;;;;;;;;;;;;;;;;;4996519;28;20471;-55
2024/01/02 15:25:02;;;;;;;;;;;;;;;;;;4990076;28;20087;-55
2024/01/02 15:27:28;;;;;;;;;;;;;;;;;;4994870;28;20056;-54
2024/01/02 15:29:55;;;;;;;;;;;;;;;;;;4989085;28;19949;-54
2024/01/02 15:32:23;;;;;;;;;;;;;;;;;;4998067;28;19992;-54
2024/01/02 15:34:49;;;;;;;;;;;;;;;;;;4998079;28;19988;-54
2024/01/02 15:37:16;;;;;;;;;;;;;;;;;;4982647;28;19913;-54
2024/01/02 15:39:41;;;;;;;;;;;;;;;;;;4992695;28;19909;-54
2024/01/02 15:42:07;;;;;;;;;;;;;;;;;;4987284;28;19979;-55
2024/01/02 15:44:33;;;;;;;;;;;;;;;;;;4990615;28;19921;-55
2024/01/02 15:46:59;;;;;;;;;;;;;;;;;;4998464;28;19920;-55
2024/01/02 15:49:25;;;;;;;;;;;;;;;;;;4984389;28;19975;-55
2024/01/02 15:51:51;;;;;;;;;;;;;;;;;;4977709;28;19929;-55
2024/01/02 15:54:21;;;;;;;;;;;;;;;;;;4982927;28;19961;-55
2024/01/02 15:56:47;;;;;;;;;;;;;;;;;;4974102;28;19987;-55
2024/01/02 15:59:13;;;;;;;;;;;;;;;;;;4983925;28;19929;-55
2024/01/02 16:01:39;;;;;;;;;;;;;;;;;;4981338;28;19924;-55
2024/01/02 16:04:06;;;;;;;;;;;;;;;;;;4983713;28;19956;-55
2024/01/02 16:06:31;;;;;;;;;;;;;;;;;;4982483;28;19913;-55
2024/01/02 16:08:57;;;;;;;;;;;;;;;;;;4990720;28;19983;-55
2024/01/02 16:11:23;;;;;;;;;;;;;;;;;;4977430;28;19931;-55
2024/01/02 16:13:49;;;;;;;;;;;;;;;;;;4978377;28;19952;-55
2024/01/02 16:16:15;;;;;;;;;;;;;;;;;;4966973;28;19921;-54
2024/01/02 16:18:41;;;;;;;;;;;;;;;;;;4979317;28;19913;-54
2024/01/02 16:21:07;;;;;;;;;;;;;;;;;;4978726;28;20524;-55
2024/01/02 16:23:33;;;;;;;;;;;;;;;;;;4977332;28;20012;-55
2024/01/02 16:25:59;;;;;;;;;;;;;;;;;;4973263;28;20369;-55
2024/01/02 16:28:25;;;;;;;;;;;;;;;;;;4976924;28;19964;-55
2024/01/02 16:30:51;;;;;;;;;;;;;;;;;;4965268;28;19971;-55
2024/01/02 16:33:17;;;;;;;;;;;;;;;;;;4975776;28;20076;-54
2024/01/02 16:35:43;;;;;;;;;;;;;;;;;;4974133;28;19980;-55
2024/01/02 16:38:09;;;;;;;;;;;;;;;;;;4975012;28;20432;-55
2024/01/02 16:40:35;;;;;;;;;;;;;;;;;;4976426;28;19914;-54